createdAt,value
2023-01-13T00:00:21.759Z,11.65
2023-01-13T00:02:50.500Z,11.62
2023-01-13T00:05:18.211Z,11.66
2023-01-13T00:07:46.502Z,11.49
2023-01-13T00:10:14.026Z,11.59
2023-01-13T00:12:42.227Z,11.63
2023-01-13T00:15:11.458Z,11.62
2023-01-13T00:17:39.840Z,11.62
2023-01-13T00:20:10.839Z,11.60
2023-01-13T00:22:38.341Z,11.66
2023-01-13T00:25:06.769Z,11.53
2023-01-13T00:27:34.672Z,11.57
2023-01-13T00:30:02.243Z,11.48
2023-01-13T00:32:29.840Z,11.45
2023-01-13T00:34:57.393Z,11.49
2023-01-13T00:37:26.509Z,11.45
2023-01-13T00:39:54.245Z,11.46
2023-01-13T00:42:39.315Z,11.43
2023-01-13T00:45:07.797Z,11.31
2023-01-13T00:47:35.330Z,11.38
2023-01-13T00:50:02.862Z,11.12
2023-01-13T00:52:33.236Z,11.05
2023-01-13T00:55:00.961Z,11.05
2023-01-13T00:57:28.451Z,11.06
2023-01-13T00:59:56.073Z,11.06
2023-01-13T01:02:23.571Z,10.96
2023-01-13T01:04:51.321Z,10.86
2023-01-13T01:07:18.837Z,10.94
2023-01-13T01:09:47.663Z,10.97
2023-01-13T01:12:15.258Z,10.93
2023-01-13T01:14:42.777Z,10.99
2023-01-13T01:17:10.336Z,10.97
2023-01-13T01:19:38.860Z,10.89
2023-01-13T01:22:06.559Z,10.86
2023-01-13T01:24:34.143Z,10.85
2023-01-13T01:27:03.035Z,10.81
2023-01-13T01:29:30.590Z,10.90
2023-01-13T01:31:58.413Z,10.73
2023-01-13T01:34:26.252Z,10.69
2023-01-13T01:36:53.776Z,10.84
2023-01-13T01:39:21.295Z,10.90
2023-01-13T01:42:02.874Z,10.82
2023-01-13T01:45:00.780Z,10.91
2023-01-13T01:47:29.208Z,10.90
2023-01-13T01:49:59.293Z,10.91
2023-01-13T01:52:32.639Z,10.89
2023-01-13T01:55:04.222Z,10.97
2023-01-13T01:57:37.565Z,11.05
2023-01-13T02:00:08.057Z,11.03
2023-01-13T02:02:37.325Z,11.02
2023-01-13T02:05:05.103Z,10.99
2023-01-13T02:07:34.384Z,11.00
2023-01-13T02:10:06.076Z,11.14
2023-01-13T02:12:34.284Z,11.13
2023-01-13T02:15:04.801Z,11.21
2023-01-13T02:17:47.963Z,11.38
2023-01-13T02:20:35.801Z,11.24
2023-01-13T02:23:33.185Z,11.22
2023-01-13T02:26:16.047Z,11.31
2023-01-13T02:29:21.101Z,11.36
2023-01-13T02:31:55.299Z,11.39
2023-01-13T02:34:30.926Z,11.21
2023-01-13T02:37:03.665Z,11.30
2023-01-13T02:39:36.966Z,11.36
2023-01-13T02:42:27.609Z,11.27
2023-01-13T02:45:02.188Z,11.42
2023-01-13T02:47:35.582Z,11.45
2023-01-13T02:50:06.517Z,11.38
2023-01-13T02:52:37.819Z,11.48
2023-01-13T02:55:10.459Z,11.48
2023-01-13T02:57:39.151Z,11.44
2023-01-13T03:00:11.228Z,11.48
2023-01-13T03:02:40.545Z,11.52
2023-01-13T03:05:08.545Z,11.46
2023-01-13T03:07:47.098Z,11.50
2023-01-13T03:10:28.292Z,11.49
2023-01-13T03:13:03.310Z,11.50
2023-01-13T03:15:43.158Z,11.55
2023-01-13T03:18:20.397Z,11.50
2023-01-13T03:21:00.562Z,11.54
2023-01-13T03:23:33.906Z,11.57
2023-01-13T03:26:09.397Z,11.48
2023-01-13T03:28:43.926Z,11.50
2023-01-13T03:31:16.980Z,11.42
2023-01-13T03:33:52.263Z,11.44
2023-01-13T03:36:25.661Z,11.50
2023-01-13T03:38:56.385Z,11.60
2023-01-13T03:41:28.592Z,11.59
2023-01-13T03:44:19.094Z,11.61
2023-01-13T03:46:53.921Z,11.66
2023-01-13T03:49:27.734Z,11.68
2023-01-13T03:51:59.618Z,11.69
2023-01-13T03:54:31.836Z,11.70
2023-01-13T03:57:04.140Z,11.67
2023-01-13T03:59:37.316Z,11.68
2023-01-13T04:02:09.991Z,11.66
2023-01-13T04:04:44.136Z,11.76
2023-01-13T04:07:21.132Z,11.75
2023-01-13T04:09:51.846Z,11.72
2023-01-13T04:12:26.177Z,11.59
2023-01-13T04:14:54.896Z,11.73
2023-01-13T04:17:24.535Z,11.69
2023-01-13T04:19:53.218Z,11.65
2023-01-13T04:22:20.621Z,11.67
2023-01-13T04:24:48.027Z,11.69
2023-01-13T04:27:15.384Z,11.69
2023-01-13T04:29:42.772Z,11.62
2023-01-13T04:32:10.163Z,11.69
2023-01-13T04:34:37.542Z,11.63
2023-01-13T04:37:06.255Z,11.65
2023-01-13T04:39:33.609Z,11.64
2023-01-13T04:42:02.423Z,11.71
2023-01-13T04:44:31.664Z,11.66
2023-01-13T04:46:59.411Z,11.76
2023-01-13T04:49:26.797Z,11.73
2023-01-13T04:51:54.381Z,11.75
2023-01-13T04:54:23.094Z,11.72
2023-01-13T04:56:50.461Z,11.71
2023-01-13T04:59:17.895Z,11.75
2023-01-13T05:01:45.437Z,11.67
2023-01-13T05:04:15.363Z,11.65
2023-01-13T05:06:42.729Z,11.67
2023-01-13T05:09:11.570Z,11.66
2023-01-13T05:11:57.802Z,11.74
2023-01-13T05:14:42.467Z,11.69
2023-01-13T05:17:11.718Z,11.69
2023-01-13T05:19:40.627Z,11.76
2023-01-13T05:22:25.583Z,11.77
2023-01-13T05:25:10.259Z,11.76
2023-01-13T05:27:38.979Z,11.66
2023-01-13T05:30:08.737Z,11.66
2023-01-13T05:32:36.110Z,11.75
2023-01-13T05:35:03.563Z,11.79
2023-01-13T05:37:31.032Z,11.74
2023-01-13T05:40:16.074Z,11.75
2023-01-13T05:43:03.098Z,11.86
2023-01-13T05:45:31.444Z,11.85
2023-01-13T05:47:58.905Z,11.72
2023-01-13T05:50:26.310Z,11.64
2023-01-13T05:52:53.664Z,11.61
2023-01-13T05:55:21.087Z,11.77
2023-01-13T05:57:49.756Z,11.79
2023-01-13T06:00:18.535Z,11.75
2023-01-13T06:02:45.960Z,11.79
2023-01-13T06:05:13.364Z,11.57
2023-01-13T06:07:40.863Z,11.66
2023-01-13T06:10:10.260Z,11.56
2023-01-13T06:12:37.963Z,11.62
2023-01-13T06:15:07.853Z,11.62
2023-01-13T06:17:35.321Z,11.64
2023-01-13T06:20:02.737Z,11.63
2023-01-13T06:22:32.802Z,11.69
2023-01-13T06:25:00.239Z,11.67
2023-01-13T06:27:27.768Z,11.82
2023-01-13T06:29:56.520Z,11.67
2023-01-13T06:32:29.464Z,11.54
2023-01-13T06:35:01.119Z,11.71
2023-01-13T06:37:29.673Z,11.80
2023-01-13T06:40:02.178Z,11.83
2023-01-13T06:42:49.550Z,11.66
2023-01-13T06:45:17.186Z,11.40
2023-01-13T06:47:45.888Z,11.58
2023-01-13T06:50:13.415Z,11.59
2023-01-13T06:52:40.801Z,11.39
2023-01-13T06:55:08.932Z,11.34
2023-01-13T06:57:36.367Z,11.55
2023-01-13T07:00:04.725Z,11.48
2023-01-13T07:02:32.307Z,11.59
2023-01-13T07:05:01.019Z,11.51
2023-01-13T07:07:28.437Z,11.52
2023-01-13T07:09:55.782Z,11.58
2023-01-13T07:12:23.206Z,11.62
2023-01-13T07:15:07.876Z,11.66
2023-01-13T07:17:35.248Z,11.59
2023-01-13T07:20:04.152Z,11.67
2023-01-13T07:22:31.542Z,11.54
2023-01-13T07:24:58.932Z,11.72
2023-01-13T07:27:26.320Z,11.75
2023-01-13T07:29:53.691Z,11.65
2023-01-13T07:32:21.076Z,11.65
2023-01-13T07:34:48.714Z,11.64
2023-01-13T07:37:17.503Z,11.71
2023-01-13T07:39:46.350Z,11.74
2023-01-13T07:42:31.348Z,11.77
2023-01-13T07:44:58.859Z,11.73
2023-01-13T07:47:26.330Z,11.78
2023-01-13T07:49:53.718Z,11.66
2023-01-13T07:52:22.400Z,11.81
2023-01-13T07:54:50.085Z,11.80
2023-01-13T07:57:17.464Z,11.78
2023-01-13T07:59:45.005Z,11.74
2023-01-13T08:02:14.009Z,11.83
2023-01-13T08:04:41.855Z,11.80
2023-01-13T08:07:09.226Z,11.78
2023-01-13T08:09:38.678Z,11.85
2023-01-13T08:12:23.953Z,11.82
2023-01-13T08:14:52.939Z,11.87
2023-01-13T08:17:21.378Z,11.80
2023-01-13T08:19:49.685Z,11.80
2023-01-13T08:22:17.124Z,11.94
2023-01-13T08:24:46.347Z,11.94
2023-01-13T08:27:14.632Z,11.95
2023-01-13T08:29:41.989Z,11.95
2023-01-13T08:32:09.434Z,11.95
2023-01-13T08:34:37.301Z,11.88
2023-01-13T08:37:05.018Z,11.85
2023-01-13T08:39:32.445Z,12.01
2023-01-13T08:42:01.447Z,12.08
2023-01-13T08:44:30.871Z,12.14
2023-01-13T08:46:58.965Z,12.04
2023-01-13T08:49:26.610Z,12.23
2023-01-13T08:51:54.289Z,12.23
2023-01-13T08:54:21.750Z,12.40
2023-01-13T08:56:49.215Z,12.57
2023-01-13T08:59:20.497Z,12.64
2023-01-13T09:01:48.241Z,12.66
2023-01-13T09:04:19.378Z,12.59
2023-01-13T09:06:48.312Z,12.60
2023-01-13T09:09:16.406Z,12.73
2023-01-13T09:12:02.538Z,12.85
2023-01-13T09:14:34.337Z,12.74
2023-01-13T09:17:02.732Z,12.98
2023-01-13T09:19:31.376Z,13.08
2023-01-13T09:21:59.197Z,13.20
2023-01-13T09:24:27.652Z,13.12
2023-01-13T09:26:55.071Z,13.01
2023-01-13T09:29:22.626Z,12.83
2023-01-13T09:31:51.386Z,11.74
2023-01-13T09:34:38.644Z,11.11
2023-01-13T09:37:07.477Z,10.52
2023-01-13T09:39:35.445Z,10.26
2023-01-13T09:42:25.592Z,9.86
2023-01-13T09:44:58.708Z,9.51
2023-01-13T09:47:34.351Z,9.33
2023-01-13T09:50:10.937Z,9.42
2023-01-13T09:52:38.391Z,9.38
2023-01-13T09:55:10.682Z,9.34
2023-01-13T09:57:39.878Z,9.65
2023-01-13T10:00:13.087Z,9.58
2023-01-13T10:02:57.883Z,9.59
2023-01-13T10:05:33.216Z,9.65
2023-01-13T10:08:05.500Z,9.35
2023-01-13T10:10:39.375Z,9.40
2023-01-13T10:13:16.287Z,9.64
2023-01-13T10:15:52.780Z,9.85
2023-01-13T10:18:26.325Z,9.70
2023-01-13T10:21:00.511Z,9.61
2023-01-13T10:23:51.955Z,9.75
2023-01-13T10:26:35.112Z,9.66
2023-01-13T10:29:02.494Z,9.62
2023-01-13T10:31:30.081Z,9.66
2023-01-13T10:34:04.114Z,9.76
2023-01-13T10:36:31.606Z,9.88
2023-01-13T10:39:09.505Z,9.91
2023-01-13T10:41:37.210Z,10.13
2023-01-13T10:44:08.582Z,9.88
2023-01-13T10:46:52.656Z,9.99
2023-01-13T10:49:36.204Z,10.23
2023-01-13T10:52:05.301Z,10.24
2023-01-13T10:54:32.845Z,10.31
2023-01-13T10:57:15.365Z,10.21
2023-01-13T10:59:42.904Z,10.33
2023-01-13T11:02:26.998Z,10.49
2023-01-13T11:05:11.659Z,10.41
2023-01-13T11:07:41.337Z,10.51
2023-01-13T11:10:19.487Z,10.58
2023-01-13T11:12:54.283Z,10.51
2023-01-13T11:15:25.953Z,10.53
2023-01-13T11:18:00.694Z,10.50
2023-01-13T11:20:36.771Z,10.38
2023-01-13T11:23:10.349Z,10.44
2023-01-13T11:25:42.395Z,10.40
2023-01-13T11:28:45.407Z,10.42
2023-01-13T11:31:21.182Z,10.41
2023-01-13T11:33:55.209Z,10.35
2023-01-13T11:36:26.629Z,10.31
2023-01-13T11:38:56.810Z,10.30
2023-01-13T11:41:39.878Z,10.36
2023-01-13T11:44:17.826Z,10.38
2023-01-13T11:46:45.362Z,10.66
2023-01-13T11:49:23.373Z,10.59
2023-01-13T11:51:55.806Z,10.31
2023-01-13T11:54:49.641Z,10.33
2023-01-13T11:57:53.391Z,10.17
2023-01-13T12:00:37.351Z,10.23
2023-01-13T12:03:28.038Z,10.07
2023-01-13T12:06:03.977Z,10.07
2023-01-13T12:09:00.428Z,10.04
2023-01-13T12:11:33.389Z,10.29
2023-01-13T12:14:15.672Z,10.07
2023-01-13T12:16:48.571Z,10.24
2023-01-13T12:19:25.297Z,10.20
2023-01-13T12:22:12.703Z,10.35
2023-01-13T12:24:48.723Z,10.57
2023-01-13T12:27:22.850Z,10.60
2023-01-13T12:29:52.896Z,10.91
2023-01-13T12:32:34.151Z,11.11
2023-01-13T12:35:23.812Z,11.07
2023-01-13T12:37:57.676Z,11.08
2023-01-13T12:40:43.728Z,11.12
2023-01-13T12:43:35.096Z,10.78
2023-01-13T12:46:53.253Z,10.58
2023-01-13T12:49:31.846Z,10.35
2023-01-13T12:52:20.518Z,10.58
2023-01-13T12:55:14.805Z,10.39
2023-01-13T12:57:59.130Z,10.38
2023-01-13T13:00:33.283Z,10.47
2023-01-13T13:03:28.256Z,10.75
2023-01-13T13:06:09.895Z,10.81
2023-01-13T13:08:51.835Z,10.69
2023-01-13T13:11:52.693Z,10.90
2023-01-13T13:14:53.782Z,10.79
2023-01-13T13:17:41.756Z,10.80
2023-01-13T13:20:50.491Z,10.79
2023-01-13T13:23:47.942Z,10.65
2023-01-13T13:26:37.531Z,10.58
2023-01-13T13:29:38.205Z,10.58
2023-01-13T13:32:43.134Z,10.65
2023-01-13T13:35:32.102Z,10.76
2023-01-13T13:38:31.023Z,10.76
2023-01-13T13:41:16.411Z,10.73
2023-01-13T13:44:03.591Z,10.80
2023-01-13T13:46:48.763Z,10.56
2023-01-13T13:49:17.508Z,10.75
2023-01-13T13:51:52.825Z,10.76
2023-01-13T13:54:22.902Z,10.45
2023-01-13T13:56:51.523Z,10.43
2023-01-13T13:59:22.264Z,10.52
2023-01-13T14:02:00.912Z,10.55
2023-01-13T14:04:30.967Z,10.58
2023-01-13T14:07:02.091Z,10.58
2023-01-13T14:09:39.837Z,10.36
2023-01-13T14:12:17.361Z,10.41
2023-01-13T14:14:45.606Z,10.43
2023-01-13T14:17:20.718Z,10.40
2023-01-13T14:19:55.279Z,10.35
2023-01-13T14:22:24.086Z,10.33
2023-01-13T14:24:55.557Z,10.22
2023-01-13T14:27:24.725Z,10.23
2023-01-13T14:29:53.651Z,10.10
2023-01-13T14:32:23.843Z,10.02
2023-01-13T14:34:55.418Z,9.87
2023-01-13T14:37:34.084Z,9.92
2023-01-13T14:40:01.865Z,9.94
2023-01-13T14:42:31.449Z,9.79
2023-01-13T14:44:59.172Z,9.94
2023-01-13T14:47:28.988Z,9.81
2023-01-13T14:50:02.334Z,9.90
2023-01-13T14:52:32.545Z,9.94
2023-01-13T14:55:24.565Z,9.97
2023-01-13T14:57:52.327Z,9.75
2023-01-13T15:00:23.240Z,9.89
2023-01-13T15:03:00.480Z,9.84
2023-01-13T15:05:33.689Z,9.67
2023-01-13T15:08:09.101Z,9.60
2023-01-13T15:10:38.658Z,9.61
2023-01-13T15:13:07.879Z,9.86
2023-01-13T15:15:37.279Z,9.86
2023-01-13T15:18:13.623Z,9.93
2023-01-13T15:20:42.268Z,10.03
2023-01-13T15:23:11.409Z,9.79
2023-01-13T15:25:40.900Z,9.41
2023-01-13T15:28:16.963Z,9.08
2023-01-13T15:30:44.309Z,8.85
2023-01-13T15:33:13.886Z,8.59
2023-01-13T15:35:44.001Z,8.24
2023-01-13T15:38:14.138Z,8.16
2023-01-13T15:40:42.955Z,8.31
2023-01-13T15:43:32.431Z,8.43
2023-01-13T15:46:18.367Z,8.34
2023-01-13T15:48:45.864Z,7.67
2023-01-13T15:51:19.712Z,7.91
2023-01-13T15:53:48.404Z,7.82
2023-01-13T15:56:25.272Z,7.62
2023-01-13T15:58:53.236Z,7.78
2023-01-13T16:01:20.952Z,7.82
2023-01-13T16:03:48.413Z,7.51
2023-01-13T16:06:19.273Z,7.45
2023-01-13T16:08:48.417Z,7.50
2023-01-13T16:11:15.819Z,7.36
2023-01-13T16:13:44.494Z,7.63
2023-01-13T16:16:20.037Z,7.47
2023-01-13T16:18:47.850Z,7.34
2023-01-13T16:21:16.035Z,7.57
2023-01-13T16:23:43.494Z,7.76
2023-01-13T16:26:21.622Z,7.57
2023-01-13T16:28:49.779Z,7.33
2023-01-13T16:31:20.309Z,7.16
2023-01-13T16:33:48.412Z,7.57
2023-01-13T16:36:16.277Z,7.74
2023-01-13T16:38:44.013Z,7.70
2023-01-13T16:41:11.400Z,7.94
2023-01-13T16:43:40.335Z,7.97
2023-01-13T16:46:26.496Z,7.97
2023-01-13T16:48:55.545Z,7.80
2023-01-13T16:51:24.351Z,7.94
2023-01-13T16:53:51.905Z,7.66
2023-01-13T16:56:25.072Z,7.82
2023-01-13T16:58:56.066Z,7.74
2023-01-13T17:01:26.072Z,7.85
2023-01-13T17:03:54.306Z,7.63
2023-01-13T17:06:25.485Z,7.54
2023-01-13T17:08:53.940Z,7.42
2023-01-13T17:11:21.565Z,7.16
2023-01-13T17:13:48.951Z,7.03
2023-01-13T17:16:24.147Z,6.82
2023-01-13T17:18:51.783Z,6.70
2023-01-13T17:21:19.477Z,6.76
2023-01-13T17:23:47.084Z,6.76
2023-01-13T17:26:32.115Z,6.78
2023-01-13T17:29:00.678Z,6.92
2023-01-13T17:31:30.205Z,7.30
2023-01-13T17:33:58.128Z,7.28
2023-01-13T17:36:26.408Z,7.40
2023-01-13T17:38:55.472Z,7.65
2023-01-13T17:41:23.285Z,7.72
2023-01-13T17:43:50.682Z,7.82
2023-01-13T17:46:19.147Z,7.81
2023-01-13T17:48:48.225Z,7.81
2023-01-13T17:51:19.248Z,7.81
2023-01-13T17:53:47.240Z,8.16
2023-01-13T17:56:16.837Z,8.27
2023-01-13T17:58:45.332Z,8.31
2023-01-13T18:01:15.663Z,8.36
2023-01-13T18:03:43.522Z,8.45
2023-01-13T18:06:17.559Z,8.60
2023-01-13T18:08:45.859Z,8.63
2023-01-13T18:11:13.887Z,8.66
2023-01-13T18:13:42.256Z,8.81
2023-01-13T18:16:11.656Z,8.63
2023-01-13T18:18:40.200Z,8.63
2023-01-13T18:21:26.307Z,8.84
2023-01-13T18:24:12.784Z,8.58
2023-01-13T18:26:57.610Z,8.63
2023-01-13T18:29:25.061Z,8.61
2023-01-13T18:31:53.133Z,8.63
2023-01-13T18:34:20.871Z,8.51
2023-01-13T18:36:48.343Z,8.46
2023-01-13T18:39:17.925Z,8.58
2023-01-13T18:42:03.061Z,8.81
2023-01-13T18:44:30.433Z,8.60
2023-01-13T18:46:57.806Z,8.67
2023-01-13T18:49:25.236Z,8.71
2023-01-13T18:51:52.583Z,8.61
2023-01-13T18:54:21.545Z,8.68
2023-01-13T18:56:49.461Z,8.74
2023-01-13T18:59:17.571Z,8.80
2023-01-13T19:01:45.152Z,8.85
2023-01-13T19:04:15.839Z,8.67
2023-01-13T19:06:48.913Z,8.86
2023-01-13T19:09:16.815Z,8.89
2023-01-13T19:11:47.253Z,8.88
2023-01-13T19:14:33.850Z,8.94
2023-01-13T19:17:02.037Z,8.85
2023-01-13T19:19:29.427Z,8.76
2023-01-13T19:21:57.148Z,8.96
2023-01-13T19:24:25.972Z,8.89
2023-01-13T19:26:55.057Z,8.98
2023-01-13T19:29:22.935Z,8.91
2023-01-13T19:31:50.541Z,8.83
2023-01-13T19:34:18.037Z,8.85
2023-01-13T19:36:45.392Z,8.82
2023-01-13T19:39:12.829Z,8.89
2023-01-13T19:41:57.853Z,8.89
2023-01-13T19:44:44.334Z,8.88
2023-01-13T19:47:13.206Z,9.05
2023-01-13T19:49:40.568Z,9.02
2023-01-13T19:52:07.949Z,8.96
2023-01-13T19:54:35.449Z,8.86
2023-01-13T19:57:03.005Z,8.90
2023-01-13T19:59:32.991Z,8.83
2023-01-13T20:02:01.716Z,8.80
2023-01-13T20:04:37.493Z,8.77
2023-01-13T20:07:06.274Z,8.77
2023-01-13T20:09:37.968Z,8.59
2023-01-13T20:12:07.569Z,8.73
2023-01-13T20:14:36.317Z,8.71
2023-01-13T20:17:03.707Z,8.74
2023-01-13T20:19:31.072Z,8.73
2023-01-13T20:21:59.057Z,8.67
2023-01-13T20:24:27.062Z,8.74
2023-01-13T20:26:54.788Z,8.80
2023-01-13T20:29:22.987Z,8.87
2023-01-13T20:31:51.847Z,8.80
2023-01-13T20:34:19.286Z,8.81
2023-01-13T20:36:47.768Z,8.84
2023-01-13T20:39:17.539Z,8.78
2023-01-13T20:42:03.355Z,8.87
2023-01-13T20:44:31.093Z,8.78
2023-01-13T20:46:59.799Z,8.82
2023-01-13T20:49:28.389Z,8.94
2023-01-13T20:51:56.205Z,8.84
2023-01-13T20:54:24.131Z,8.75
2023-01-13T20:56:51.467Z,8.71
2023-01-13T20:59:18.996Z,8.53
2023-01-13T21:01:46.495Z,8.54
2023-01-13T21:04:15.211Z,8.48
2023-01-13T21:06:42.591Z,8.54
2023-01-13T21:09:10.041Z,8.48
2023-01-13T21:11:54.822Z,8.54
2023-01-13T21:14:38.588Z,8.56
2023-01-13T21:17:06.681Z,8.49
2023-01-13T21:19:34.383Z,8.45
2023-01-13T21:22:03.944Z,8.60
2023-01-13T21:24:31.341Z,8.72
2023-01-13T21:26:59.236Z,8.70
2023-01-13T21:29:26.782Z,8.70
2023-01-13T21:31:54.448Z,8.75
2023-01-13T21:34:21.968Z,8.85
2023-01-13T21:36:50.725Z,8.84
2023-01-13T21:39:18.133Z,8.86
2023-01-13T21:42:02.982Z,8.77
2023-01-13T21:44:47.908Z,8.89
2023-01-13T21:47:37.184Z,8.79
2023-01-13T21:50:08.864Z,8.98
2023-01-13T21:52:37.606Z,9.02
2023-01-13T21:55:20.296Z,9.02
2023-01-13T21:57:48.370Z,9.02
2023-01-13T22:00:16.175Z,8.89
2023-01-13T22:02:44.302Z,8.98
2023-01-13T22:05:14.642Z,8.86
2023-01-13T22:07:43.643Z,8.94
2023-01-13T22:10:13.802Z,8.81
2023-01-13T22:12:41.253Z,8.70
2023-01-13T22:15:10.273Z,8.62
2023-01-13T22:17:37.741Z,8.62
2023-01-13T22:20:06.189Z,8.35
2023-01-13T22:22:36.659Z,8.36
2023-01-13T22:25:08.057Z,8.25
2023-01-13T22:27:40.116Z,8.36
2023-01-13T22:30:09.605Z,8.34
2023-01-13T22:32:38.819Z,8.45
2023-01-13T22:35:07.819Z,8.42
2023-01-13T22:37:36.278Z,8.31
2023-01-13T22:40:05.988Z,8.20
2023-01-13T22:42:34.642Z,8.14
2023-01-13T22:45:02.160Z,8.29
2023-01-13T22:47:31.269Z,8.39
2023-01-13T22:49:58.642Z,8.46
2023-01-13T22:52:27.115Z,8.31
2023-01-13T22:54:54.541Z,8.34
2023-01-13T22:57:23.936Z,8.42
2023-01-13T22:59:51.523Z,8.40
2023-01-13T23:02:18.907Z,8.27
2023-01-13T23:04:46.280Z,8.44
2023-01-13T23:07:13.692Z,8.49
2023-01-13T23:09:41.072Z,8.48
2023-01-13T23:12:08.864Z,8.67
2023-01-13T23:14:37.567Z,8.61
2023-01-13T23:17:04.985Z,8.72
2023-01-13T23:19:32.416Z,8.72
2023-01-13T23:21:59.789Z,8.71
2023-01-13T23:24:29.171Z,8.73
2023-01-13T23:26:56.580Z,8.81
2023-01-13T23:29:23.941Z,8.59
2023-01-13T23:31:52.621Z,8.62
2023-01-13T23:34:20.003Z,8.62
2023-01-13T23:36:47.347Z,8.53
2023-01-13T23:39:14.765Z,8.53
2023-01-13T23:41:42.146Z,8.29
2023-01-13T23:44:09.801Z,8.29
2023-01-13T23:46:37.223Z,8.28
2023-01-13T23:49:05.929Z,8.26
2023-01-13T23:51:33.461Z,8.18
2023-01-13T23:54:01.428Z,8.17
2023-01-13T23:56:31.304Z,8.01
2023-01-13T23:58:59.112Z,7.85
